Time;durP1;ratioP1;P1;durP2;ratioP2;P2;SDS_P1;SDS_P2;PMS_P1;PMS_P2;Temp;Humidity;BMP_temperature;BMP_pressure;BME280_temperature;BME280_humidity;BME280_pressure;Samples;Min_cycle;Max_cycle;Signal;HPM_P1;HPM_P2
2022/02/10 00:15:58;;;;;;;27.58;16.83;;;;;;;4.59;100.00;100048.88;5093760;28;20322;-80
2022/02/10 00:18:45;;;;;;;26.05;16.88;;;;;;;4.54;100.00;100053.44;5088813;28;20180;-80
2022/02/10 00:21:21;;;;;;;24.30;15.00;;;;;;;4.33;100.00;100039.75;5087026;28;20215;-81
2022/02/10 00:24:08;;;;;;;22.88;15.30;;;;;;;4.17;100.00;100047.25;5094416;28;20519;-80
2022/02/10 00:34:51;;;;;;;22.98;16.67;;;;;;;4.46;100.00;100036.78;5093853;28;20693;-81
2022/02/10 00:37:24;;;;;;;17.75;15.55;;;;;;;4.15;100.00;100025.09;5094020;28;20195;-81
2022/02/10 00:40:06;;;;;;;20.38;16.13;;;;;;;4.04;100.00;100029.81;5093820;28;20254;-82
2022/02/10 00:42:34;;;;;;;23.23;16.02;;;;;;;4.01;100.00;100023.69;5093547;28;20274;-82
2022/02/10 00:45:01;;;;;;;23.38;16.98;;;;;;;4.12;100.00;100025.19;5085547;28;20191;-82
2022/02/10 00:47:30;;;;;;;33.35;17.77;;;;;;;4.16;100.00;100021.53;5093466;28;21060;-82
2022/02/10 00:49:59;;;;;;;25.58;16.85;;;;;;;4.04;100.00;100011.16;5093815;28;20188;-82
2022/02/10 00:52:26;;;;;;;24.13;16.40;;;;;;;3.93;100.00;100008.78;5094590;28;20202;-74
2022/02/10 00:54:52;;;;;;;22.63;15.20;;;;;;;3.68;100.00;100011.13;5093011;28;20218;-74
2022/02/10 00:57:21;;;;;;;18.38;15.13;;;;;;;3.77;100.00;100002.03;5093928;28;20352;-74
2022/02/10 01:00:05;;;;;;;18.63;13.15;;;;;;;3.87;100.00;100006.25;5093789;28;20207;-73
2022/02/10 01:10:54;;;;;;;19.15;12.45;;;;;;;3.75;100.00;100002.09;5092085;28;20538;-74
2022/02/10 01:13:40;;;;;;;20.73;12.90;;;;;;;3.60;100.00;99993.59;5093721;28;20518;-74
2022/02/10 01:24:34;;;;;;;18.60;13.63;;;;;;;3.75;100.00;99978.13;5093603;28;20213;-73
2022/02/10 01:29:46;;;;;;;17.23;13.57;;;;;;;3.68;100.00;99975.63;5092923;28;20196;-73
2022/02/10 01:32:16;;;;;;;18.48;13.25;;;;;;;3.47;100.00;99972.56;5092625;28;20246;-73
2022/02/10 01:34:47;;;;;;;22.52;14.70;;;;;;;3.45;100.00;99973.50;5092986;28;20852;-74
2022/02/10 01:37:14;;;;;;;18.20;13.10;;;;;;;3.52;100.00;99965.34;5092768;28;20195;-75
2022/02/10 01:39:46;;;;;;;25.73;14.45;;;;;;;3.54;100.00;99974.16;5092050;28;20226;-73
2022/02/10 02:04:08;;;;;;;14.00;9.95;;;;;;;4.60;100.00;99982.13;5092660;28;21002;-73
2022/02/10 02:06:42;;;;;;;12.27;9.85;;;;;;;4.54;100.00;99981.44;5092815;28;20192;-73
2022/02/10 02:09:11;;;;;;;13.55;9.73;;;;;;;4.62;100.00;99976.78;5092248;28;20682;-73
2022/02/10 02:11:39;;;;;;;14.38;8.90;;;;;;;4.53;100.00;99975.22;5092588;28;20187;-72
2022/02/10 02:14:06;;;;;;;12.18;8.30;;;;;;;4.71;100.00;99972.97;5092501;28;20260;-73
2022/02/10 02:16:33;;;;;;;11.57;8.82;;;;;;;4.80;100.00;99954.91;5091803;28;20190;-73
2022/02/10 02:19:00;;;;;;;11.95;9.10;;;;;;;5.00;100.00;99956.13;5092337;28;20196;-73
2022/02/10 02:21:30;;;;;;;12.98;9.07;;;;;;;5.13;100.00;99962.84;5092147;28;20182;-73
2022/02/10 02:23:58;;;;;;;18.92;9.25;;;;;;;5.24;100.00;99951.81;5092120;28;20528;-74
2022/02/10 02:26:26;;;;;;;14.55;9.45;;;;;;;5.28;100.00;99952.63;5092519;28;20200;-73
2022/02/10 02:28:58;;;;;;;11.32;7.80;;;;;;;5.30;100.00;99943.63;5091677;28;20196;-73
2022/02/10 02:31:29;;;;;;;15.13;9.25;;;;;;;5.22;100.00;99948.31;5092519;28;20548;-73
2022/02/10 02:37:20;;;;;;;12.45;9.25;;;;;;;5.13;100.00;99946.84;5084691;28;20192;-73
2022/02/10 02:40:10;;;;;;;11.18;8.80;;;;;;;5.07;100.00;99940.81;5086949;28;20180;-72
2022/02/10 06:51:23;;;;;;;13.32;10.05;;;;;;;8.10;100.00;99901.22;5075119;27;20564;-72
2022/02/10 06:54:02;;;;;;;12.60;8.98;;;;;;;7.99;100.00;99892.75;5080135;28;20206;-77
2022/02/10 07:05:29;;;;;;;14.57;9.63;;;;;;;7.99;100.00;99907.03;5059038;28;20197;-72
2022/02/10 07:08:18;;;;;;;27.38;14.15;;;;;;;8.09;100.00;99911.06;5076315;28;20208;-73
2022/02/10 07:49:41;;;;;;;13.27;9.90;;;;;;;7.63;100.00;99945.16;5121837;28;20198;-73
2022/02/10 07:55:10;;;;;;;15.00;11.00;;;;;;;7.72;100.00;99954.63;5125692;28;20184;-73
2022/02/10 07:57:41;;;;;;;16.75;11.40;;;;;;;7.92;100.00;99946.66;5113498;28;20203;-73
2022/02/10 08:55:20;;;;;;;17.38;11.75;;;;;;;8.01;100.00;99996.34;5008490;28;20683;-78
2022/02/10 09:01:25;;;;;;;19.67;10.90;;;;;;;7.66;100.00;100003.97;4953733;29;20562;-77
2022/02/10 09:04:00;;;;;;;19.25;11.70;;;;;;;8.03;100.00;100013.25;4934439;29;20199;-78
2022/02/10 09:06:48;;;;;;;13.98;12.38;;;;;;;8.14;100.00;100015.50;4993553;28;20285;-78
2022/02/10 09:09:58;;;;;;;15.50;11.85;;;;;;;8.11;100.00;100016.47;5013795;28;20193;-77
2022/02/10 10:00:06;;;;;;;21.10;12.45;;;;;;;7.63;100.00;100044.31;5129092;28;20258;-79
2022/02/10 10:02:37;;;;;;;20.77;12.13;;;;;;;7.62;100.00;100047.94;5129623;28;20180;-79
2022/02/10 10:05:15;;;;;;;19.20;13.40;;;;;;;7.65;100.00;100050.50;5137196;27;20590;-80
2022/02/10 10:07:57;;;;;;;23.02;14.63;;;;;;;7.67;100.00;100055.81;5144132;27;20274;-79
2022/02/10 10:16:03;;;;;;;15.32;12.40;;;;;;;7.40;100.00;100058.59;5149393;27;20239;-79
2022/02/10 10:21:25;;;;;;;19.48;14.15;;;;;;;7.55;100.00;100059.81;5149651;27;20182;-79
2022/02/10 10:52:11;;;;;;;19.27;12.48;;;;;;;7.89;100.00;100042.41;5117044;27;20565;-79
2022/02/10 10:54:46;;;;;;;13.85;10.80;;;;;;;8.02;100.00;100043.66;5130895;27;20206;-78
2022/02/10 10:57:18;;;;;;;16.40;11.07;;;;;;;7.91;100.00;100038.75;5143272;27;20179;-74
2022/02/10 11:36:31;;;;;;;14.25;10.02;;;;;;;8.01;100.00;100020.47;5069510;28;20197;-75
2022/02/10 11:39:31;;;;;;;13.45;9.63;;;;;;;8.00;100.00;100031.25;5069724;28;20190;-74
2022/02/10 11:42:37;;;;;;;14.98;10.00;;;;;;;8.02;100.00;100027.56;5114356;27;20532;-75
2022/02/10 13:23:20;;;;;;;19.13;13.75;;;;;;;7.89;100.00;100031.69;5124846;27;20263;-74
2022/02/10 14:09:35;;;;;;;16.95;11.85;;;;;;;7.56;100.00;100018.69;5135751;27;20598;-74
2022/02/10 14:14:49;;;;;;;17.17;11.57;;;;;;;7.42;100.00;100004.97;5134271;27;20236;-75
2022/02/10 14:17:27;;;;;;;19.00;13.20;;;;;;;7.69;100.00;100006.56;5135373;27;20583;-76
2022/02/10 14:19:59;;;;;;;18.17;12.30;;;;;;;7.35;100.00;100017.72;5135074;27;20205;-73
2022/02/10 14:22:38;;;;;;;15.60;11.38;;;;;;;7.26;100.00;100023.44;5135692;27;20206;-74
2022/02/10 14:27:50;;;;;;;20.92;11.40;;;;;;;7.35;100.00;100020.41;5135312;27;20182;-75
2022/02/10 14:30:20;;;;;;;17.00;12.60;;;;;;;7.23;100.00;100021.72;5135623;27;20266;-75
2022/02/10 14:32:46;;;;;;;17.70;12.38;;;;;;;7.31;100.00;100024.13;5134996;27;20194;-74
2022/02/10 14:35:19;;;;;;;18.80;13.60;;;;;;;7.47;100.00;100032.44;5135409;27;20257;-74
2022/02/10 14:38:08;;;;;;;17.90;11.55;;;;;;;7.34;100.00;100028.50;5135232;27;20284;-75
2022/02/10 14:41:00;;;;;;;16.25;11.38;;;;;;;7.22;100.00;100024.47;5134960;27;20540;-75
2022/02/10 15:10:45;;;;;;;14.63;10.88;;;;;;;7.16;100.00;100030.91;5134374;27;20204;-74
2022/02/10 15:48:18;;;;;;;13.95;10.77;;;;;;;8.08;100.00;99989.78;5133822;27;20195;-74
2022/02/10 15:50:46;;;;;;;20.10;11.85;;;;;;;7.81;100.00;99989.09;5133418;27;20183;-74
2022/02/10 15:56:25;;;;;;;16.50;12.10;;;;;;;8.18;100.00;99998.31;5094981;27;20219;-75
2022/02/10 16:18:07;;;;;;;14.75;11.20;;;;;;;8.22;100.00;100001.75;5132956;27;20252;-74
2022/02/10 16:20:34;;;;;;;28.17;18.67;;;;;;;8.22;100.00;100001.75;5133601;27;20188;-75
2022/02/10 16:23:04;;;;;;;21.50;13.07;;;;;;;8.23;100.00;100004.38;5132460;27;20223;-75
2022/02/10 16:25:37;;;;;;;16.77;12.48;;;;;;;8.18;100.00;99997.44;5133309;27;20187;-74
2022/02/10 16:28:11;;;;;;;16.65;12.57;;;;;;;8.22;100.00;99986.50;5133144;27;20685;-75
2022/02/10 16:30:39;;;;;;;16.15;12.32;;;;;;;8.21;100.00;99994.63;5133275;27;20233;-75
2022/02/10 16:33:06;;;;;;;18.92;11.55;;;;;;;8.07;100.00;99996.09;5132585;27;20660;-75
2022/02/10 16:35:33;;;;;;;19.42;13.13;;;;;;;8.23;100.00;99992.75;5132673;27;20275;-74
2022/02/10 16:38:00;;;;;;;20.30;13.75;;;;;;;8.24;100.00;99983.78;5133288;27;20697;-75
2022/02/10 16:40:27;;;;;;;18.98;14.75;;;;;;;8.22;100.00;99985.66;5133182;27;20220;-74
2022/02/10 16:42:55;;;;;;;15.27;11.68;;;;;;;8.21;100.00;99979.41;5132952;27;20715;-75
2022/02/10 16:45:22;;;;;;;13.93;11.07;;;;;;;8.10;100.00;99976.31;5132490;27;20288;-74
2022/02/10 16:47:48;;;;;;;17.45;13.25;;;;;;;8.06;100.00;99982.75;5132139;27;20195;-75
2022/02/10 16:50:15;;;;;;;18.77;13.20;;;;;;;8.18;100.00;99974.16;5133456;27;20209;-74
2022/02/10 16:52:46;;;;;;;18.98;12.65;;;;;;;8.03;100.00;99975.69;5133338;27;20282;-74
2022/02/10 16:55:21;;;;;;;21.88;14.00;;;;;;;7.99;100.00;99974.06;5125314;27;20266;-75
2022/02/10 16:58:01;;;;;;;16.35;13.45;;;;;;;8.03;100.00;99961.44;5132089;27;20185;-74
2022/02/10 17:03:25;;;;;;;19.88;13.52;;;;;;;7.87;100.00;99971.91;5129963;27;20202;-74
2022/02/10 17:06:04;;;;;;;19.45;13.95;;;;;;;7.90;100.00;99971.78;5132058;27;20179;-74
2022/02/10 17:14:21;;;;;;;21.98;15.82;;;;;;;8.07;100.00;99977.31;5066967;28;20227;-74
2022/02/10 17:19:33;;;;;;;20.70;12.90;;;;;;;7.93;100.00;99964.47;5152453;27;20190;-74
2022/02/10 17:27:32;;;;;;;19.85;13.30;;;;;;;8.01;100.00;99972.22;5130553;28;20254;-74
2022/02/10 17:33:02;;;;;;;18.73;12.07;;;;;;;7.73;100.00;99961.72;5131021;28;20201;-76
2022/02/10 17:35:48;;;;;;;19.88;12.60;;;;;;;7.89;100.00;99967.34;5133326;27;20972;-75
2022/02/10 17:44:16;;;;;;;21.80;12.98;;;;;;;7.88;100.00;99954.88;5134513;27;20190;-75
2022/02/10 17:46:56;;;;;;;19.95;12.55;;;;;;;7.85;100.00;99946.97;5132772;27;20613;-75
2022/02/10 17:52:14;;;;;;;18.02;13.50;;;;;;;7.85;100.00;99949.66;5132723;27;20328;-75
2022/02/10 17:54:44;;;;;;;21.35;13.73;;;;;;;7.84;100.00;99946.06;5135072;27;20220;-76
2022/02/10 17:57:12;;;;;;;32.58;22.33;;;;;;;7.90;100.00;99936.91;5135112;27;20282;-75
2022/02/10 17:59:38;;;;;;;37.97;23.80;;;;;;;7.87;100.00;99937.06;5135205;27;20199;-75
2022/02/10 18:02:05;;;;;;;22.73;19.40;;;;;;;7.91;100.00;99939.56;5135029;27;20227;-75
2022/02/10 18:04:34;;;;;;;19.67;14.30;;;;;;;7.83;100.00;99938.13;5133955;27;20195;-76
2022/02/10 18:07:00;;;;;;;19.33;14.15;;;;;;;7.84;100.00;99938.03;5135950;27;20283;-74
2022/02/10 18:15:06;;;;;;;21.60;14.43;;;;;;;7.82;100.00;99945.25;5114685;28;20229;-75
2022/02/10 18:17:37;;;;;;;19.35;14.57;;;;;;;7.81;100.00;99940.00;5132909;27;20659;-74
2022/02/10 18:20:11;;;;;;;19.98;13.25;;;;;;;7.68;100.00;99939.59;5135275;27;20206;-75
2022/02/10 18:22:55;;;;;;;17.70;13.23;;;;;;;7.92;100.00;99940.41;5135156;27;20230;-75
2022/02/10 18:28:20;;;;;;;17.85;13.75;;;;;;;7.88;100.00;99936.09;5101085;28;20204;-75
2022/02/10 18:34:02;;;;;;;22.55;15.55;;;;;;;7.92;100.00;99938.59;5134032;27;20190;-74
2022/02/10 19:01:54;;;;;;;15.93;12.05;;;;;;;8.12;100.00;99943.13;5133226;27;20277;-75
2022/02/10 19:07:18;;;;;;;20.80;14.57;;;;;;;8.06;100.00;99937.16;5134558;27;20565;-74
2022/02/10 19:09:49;;;;;;;24.10;16.10;;;;;;;8.01;100.00;99936.47;5134038;27;20190;-75
2022/02/10 19:12:19;;;;;;;23.80;16.05;;;;;;;8.05;100.00;99941.66;5134996;27;20574;-75
2022/02/10 19:14:53;;;;;;;19.38;14.23;;;;;;;8.11;100.00;99941.38;5134032;27;20580;-75
2022/02/10 19:17:20;;;;;;;20.98;12.98;;;;;;;8.02;100.00;99936.41;5135117;27;20183;-75
2022/02/10 19:19:47;;;;;;;20.17;14.75;;;;;;;7.91;100.00;99942.22;5134677;27;20234;-75
2022/02/10 19:22:14;;;;;;;19.42;12.60;;;;;;;8.05;100.00;99938.97;5134339;27;20196;-74
2022/02/10 19:24:40;;;;;;;22.17;14.85;;;;;;;8.13;100.00;99931.44;5134860;27;21001;-75
2022/02/10 19:27:09;;;;;;;22.58;15.13;;;;;;;8.14;100.00;99930.53;5132617;27;20201;-74
2022/02/10 19:29:37;;;;;;;21.15;13.90;;;;;;;8.20;100.00;99928.50;5134189;27;20187;-76
2022/02/10 19:32:05;;;;;;;21.50;13.73;;;;;;;8.20;100.00;99924.00;5134301;27;20276;-76
2022/02/10 19:34:35;;;;;;;18.55;14.38;;;;;;;8.29;100.00;99922.75;5133822;27;21582;-74
2022/02/10 19:37:02;;;;;;;23.85;15.45;;;;;;;8.24;100.00;99922.94;5134097;27;20209;-75
2022/02/10 19:39:29;;;;;;;18.08;13.98;;;;;;;8.20;100.00;99918.66;5134202;27;20725;-75
2022/02/10 19:41:55;;;;;;;17.88;12.93;;;;;;;8.14;100.00;99922.47;5134184;27;20192;-75
2022/02/10 19:44:23;;;;;;;20.35;14.00;;;;;;;8.18;100.00;99922.34;5133864;27;20225;-74
2022/02/10 19:46:50;;;;;;;20.38;13.40;;;;;;;8.28;100.00;99927.25;5133193;27;20195;-75
2022/02/10 19:49:20;;;;;;;17.20;12.85;;;;;;;8.15;100.00;99928.72;5133915;27;20186;-75
2022/02/10 19:51:48;;;;;;;15.52;11.80;;;;;;;8.24;100.00;99927.44;5133372;27;20187;-75
2022/02/10 19:54:23;;;;;;;17.58;11.77;;;;;;;8.33;100.00;99925.22;5132080;27;20254;-75
2022/02/10 19:56:50;;;;;;;15.48;11.70;;;;;;;8.33;100.00;99929.72;5113454;28;20211;-74
2022/02/10 19:59:19;;;;;;;15.82;11.32;;;;;;;8.32;100.00;99930.66;5127580;27;20223;-74
2022/02/10 20:01:49;;;;;;;18.05;12.82;;;;;;;8.36;100.00;99929.59;5133733;27;20295;-74
2022/02/10 20:04:19;;;;;;;16.45;12.07;;;;;;;8.33;100.00;99932.41;5133396;27;20280;-74
2022/02/10 20:06:45;;;;;;;16.83;12.20;;;;;;;8.32;100.00;99930.66;5133196;27;20621;-74
2022/02/10 20:09:13;;;;;;;14.85;10.90;;;;;;;8.33;100.00;99927.03;5132798;27;20199;-74
2022/02/10 20:11:40;;;;;;;16.88;12.45;;;;;;;8.38;100.00;99914.28;5133194;27;20630;-76
2022/02/10 20:14:06;;;;;;;16.50;12.20;;;;;;;8.22;100.00;99914.09;5132922;27;20704;-75
2022/02/10 20:16:33;;;;;;;16.58;13.23;;;;;;;8.29;100.00;99920.94;5132810;27;20558;-74
2022/02/10 20:19:02;;;;;;;16.27;12.15;;;;;;;8.17;100.00;99917.94;5133071;27;20195;-75
2022/02/10 20:21:30;;;;;;;19.20;14.35;;;;;;;8.14;100.00;99913.56;5132696;27;20267;-74
2022/02/10 20:23:57;;;;;;;23.27;14.50;;;;;;;8.32;100.00;99912.75;5133023;27;20224;-74
2022/02/10 20:26:23;;;;;;;23.50;15.65;;;;;;;8.27;100.00;99901.34;5133366;27;20203;-74
2022/02/10 20:28:50;;;;;;;25.77;16.92;;;;;;;8.22;100.00;99911.41;5132223;27;20233;-74
2022/02/10 20:31:17;;;;;;;21.08;15.35;;;;;;;8.19;100.00;99913.38;5133119;27;20370;-75
2022/02/10 20:33:44;;;;;;;22.13;16.23;;;;;;;8.12;100.00;99913.63;5132577;27;20709;-73
2022/02/10 20:36:14;;;;;;;23.48;16.17;;;;;;;7.99;100.00;99909.72;5132634;27;20680;-75
2022/02/10 20:38:44;;;;;;;22.77;15.90;;;;;;;8.05;100.00;99909.47;5132728;27;20218;-75
2022/02/10 20:41:14;;;;;;;23.35;16.30;;;;;;;8.04;100.00;99913.06;5131975;27;20628;-74
2022/02/10 20:43:42;;;;;;;23.02;16.10;;;;;;;7.99;100.00;99912.41;5134080;27;20684;-74
2022/02/10 20:46:11;;;;;;;24.27;16.88;;;;;;;7.99;100.00;99909.72;5132942;27;20662;-74
2022/02/10 20:48:40;;;;;;;23.20;16.25;;;;;;;8.01;100.00;99907.84;5132977;27;20199;-74
2022/02/10 20:51:09;;;;;;;23.20;16.38;;;;;;;7.98;100.00;99907.09;5133531;27;20948;-74
2022/02/10 20:53:39;;;;;;;22.25;16.40;;;;;;;7.95;100.00;99908.09;5132373;27;20270;-74
2022/02/10 20:56:08;;;;;;;21.38;16.13;;;;;;;7.93;100.00;99908.16;5132456;27;20673;-74
2022/02/10 20:58:36;;;;;;;21.90;15.48;;;;;;;7.94;100.00;99901.00;5129864;27;20270;-76
2022/02/10 21:01:04;;;;;;;24.05;16.40;;;;;;;7.76;100.00;99902.66;5123140;27;20214;-75
2022/02/10 21:03:33;;;;;;;22.23;16.70;;;;;;;7.91;100.00;99893.97;5132037;27;20186;-75
2022/02/10 21:06:08;;;;;;;19.75;15.18;;;;;;;7.80;100.00;99892.66;5131471;27;20192;-76
2022/02/10 21:08:42;;;;;;;20.33;15.85;;;;;;;7.94;100.00;99892.97;5132290;27;20198;-76
2022/02/10 21:11:11;;;;;;;18.98;14.60;;;;;;;7.88;100.00;99886.03;5132052;27;20184;-76
2022/02/10 21:13:37;;;;;;;20.33;15.02;;;;;;;7.84;100.00;99887.09;5131522;27;20216;-75
2022/02/10 21:16:05;;;;;;;21.23;15.60;;;;;;;7.73;100.00;99892.94;5131591;28;20595;-76
2022/02/10 21:18:33;;;;;;;20.00;14.38;;;;;;;7.69;100.00;99885.09;5131435;28;20223;-75
2022/02/10 21:21:05;;;;;;;27.25;18.65;;;;;;;7.61;100.00;99881.84;5131115;28;20210;-76
2022/02/10 21:23:35;;;;;;;21.77;15.80;;;;;;;7.59;100.00;99883.72;5131276;28;20179;-75
2022/02/10 21:26:02;;;;;;;21.25;16.33;;;;;;;7.69;100.00;99883.28;5131751;28;20189;-76
2022/02/10 21:28:33;;;;;;;19.35;15.35;;;;;;;7.57;100.00;99886.44;5131539;28;20190;-74
2022/02/10 21:31:02;;;;;;;20.40;16.70;;;;;;;7.62;100.00;99880.88;5131600;28;20201;-76
2022/02/10 21:33:46;;;;;;;21.80;16.65;;;;;;;7.66;100.00;99879.84;5131444;28;20187;-76
2022/02/10 21:38:59;;;;;;;21.40;16.13;;;;;;;7.47;100.00;99875.22;5130760;28;20187;-76
2022/02/10 21:47:43;;;;;;;23.60;16.98;;;;;;;7.66;100.00;99874.47;5089018;27;20542;-76
2022/02/10 21:53:38;;;;;;;23.00;16.85;;;;;;;7.60;100.00;99875.63;5087482;28;20242;-77
2022/02/10 21:56:26;;;;;;;18.88;14.38;;;;;;;7.77;100.00;99879.38;5088005;28;20219;-77
2022/02/10 22:05:30;;;;;;;13.70;11.02;;;;;;;7.85;100.00;99888.84;5045332;28;20197;-77
2022/02/10 22:10:29;;;;;;;14.85;10.52;;;;;;;7.68;100.00;99876.16;5042766;28;20215;-78
2022/02/10 22:18:36;;;;;;;14.77;10.73;;;;;;;7.64;100.00;99877.25;5086435;28;20293;-77
2022/02/10 22:21:06;;;;;;;12.43;9.52;;;;;;;7.63;100.00;99880.84;5088031;28;20195;-76
2022/02/10 22:23:36;;;;;;;14.00;10.30;;;;;;;7.66;100.00;99878.03;5090832;28;20212;-79
2022/02/10 22:26:06;;;;;;;13.93;9.10;;;;;;;7.69;100.00;99874.38;5087355;28;20627;-81
2022/02/10 22:28:43;;;;;;;14.93;10.10;;;;;;;7.49;100.00;99880.53;5087330;28;20191;-81
2022/02/10 22:31:33;;;;;;;15.73;10.10;;;;;;;7.51;100.00;99876.00;5087557;28;20196;-80
2022/02/10 22:34:11;;;;;;;14.60;10.00;;;;;;;7.59;100.00;99864.94;5087354;28;20276;-81
2022/02/10 22:36:42;;;;;;;15.75;10.95;;;;;;;7.64;100.00;99874.56;5087879;28;20200;-82
2022/02/10 22:39:09;;;;;;;11.90;10.10;;;;;;;7.59;100.00;99867.63;5088178;28;20190;-82
2022/02/10 22:41:36;;;;;;;13.30;10.00;;;;;;;7.65;100.00;99870.94;5087261;28;20192;-81
2022/02/10 22:44:04;;;;;;;15.38;11.77;;;;;;;7.54;100.00;99873.19;5087159;28;20718;-82
2022/02/10 22:46:32;;;;;;;14.13;10.85;;;;;;;7.48;100.00;99874.31;5086875;28;20323;-81
2022/02/10 22:48:59;;;;;;;13.02;10.77;;;;;;;7.66;100.00;99885.19;5087365;28;20262;-82
2022/02/10 22:51:28;;;;;;;15.50;10.70;;;;;;;7.51;100.00;99876.00;5087042;28;20191;-81
2022/02/10 22:53:57;;;;;;;13.60;9.90;;;;;;;7.47;100.00;99879.72;5087486;28;20965;-81
2022/02/10 22:56:44;;;;;;;15.25;11.10;;;;;;;7.59;100.00;99886.38;5091263;28;20189;-81
2022/02/10 22:59:10;;;;;;;14.20;10.68;;;;;;;7.44;100.00;99888.78;5073702;28;20244;-80
2022/02/10 23:01:38;;;;;;;17.65;10.32;;;;;;;7.49;100.00;99884.09;5059013;28;20201;-81
2022/02/10 23:04:07;;;;;;;14.00;10.05;;;;;;;7.55;100.00;99887.44;5064214;28;20183;-81
2022/02/10 23:06:34;;;;;;;14.65;10.20;;;;;;;7.63;100.00;99885.34;5074196;28;20221;-81
2022/02/10 23:11:43;;;;;;;17.08;11.13;;;;;;;7.55;100.00;99880.25;5073856;28;20205;-83
2022/02/10 23:14:09;;;;;;;17.23;10.70;;;;;;;7.55;100.00;99876.72;5074244;28;20224;-81
2022/02/10 23:16:37;;;;;;;13.80;9.98;;;;;;;7.54;100.00;99881.22;5074051;28;20269;-81
2022/02/10 23:19:04;;;;;;;12.85;9.40;;;;;;;7.66;100.00;99875.34;5073913;28;20181;-81
2022/02/10 23:21:30;;;;;;;14.60;11.10;;;;;;;7.51;100.00;99874.19;5073978;28;20529;-81
2022/02/10 23:23:57;;;;;;;13.50;10.98;;;;;;;7.24;100.00;99872.63;5074297;28;20186;-81
2022/02/10 23:26:26;;;;;;;13.48;10.68;;;;;;;7.45;100.00;99877.09;5073298;28;20205;-81
2022/02/10 23:28:55;;;;;;;15.13;9.40;;;;;;;7.45;100.00;99884.28;5073798;28;20197;-81
2022/02/10 23:31:24;;;;;;;13.02;10.00;;;;;;;7.23;100.00;99881.59;5073800;28;20279;-81
2022/02/10 23:33:53;;;;;;;12.50;8.75;;;;;;;7.05;100.00;99884.03;5073474;28;20188;-81
2022/02/10 23:39:13;;;;;;;17.08;11.68;;;;;;;6.98;100.00;99885.22;5072705;28;20263;-82
2022/02/10 23:44:29;;;;;;;14.63;10.40;;;;;;;6.65;100.00;99890.94;5073400;28;20261;-82
2022/02/10 23:46:57;;;;;;;12.25;9.48;;;;;;;6.53;100.00;99888.72;5069830;28;20273;-81
2022/02/10 23:49:25;;;;;;;15.93;10.82;;;;;;;6.39;100.00;99883.88;5073650;28;20575;-80
2022/02/10 23:51:57;;;;;;;13.05;11.13;;;;;;;6.24;100.00;99882.63;5072837;28;20207;-80
2022/02/10 23:54:25;;;;;;;14.57;11.20;;;;;;;6.38;100.00;99886.63;5073204;28;20193;-81
2022/02/10 23:56:58;;;;;;;11.85;9.73;;;;;;;6.45;100.00;99889.00;5072494;28;20189;-81
2022/02/10 23:59:38;;;;;;;15.23;9.93;;;;;;;6.33;100.00;99888.56;5072579;28;20311;-81
